Time;durP1;ratioP1;P1;durP2;ratioP2;P2;SDS_P1;SDS_P2;PMS_P1;PMS_P2;Temp;Humidity;BMP_temperature;BMP_pressure;BME280_temperature;BME280_humidity;BME280_pressure;Samples;Min_cycle;Max_cycle;Signal;HPM_P1;HPM_P2
2022/01/29 00:01:11;;;;;;;126.30;88.25;;;;;;;24.83;35.14;103507.06;5035491;28;20033;-41
2022/01/29 00:03:40;;;;;;;127.28;90.43;;;;;;;24.77;35.15;103496.28;5053125;28;20034;-42
2022/01/29 00:06:07;;;;;;;134.20;91.00;;;;;;;24.83;35.54;103491.31;5053168;28;20029;-41
2022/01/29 00:08:35;;;;;;;131.70;92.20;;;;;;;24.74;35.24;103478.63;5034610;28;20032;-41
2022/01/29 00:11:12;;;;;;;131.52;91.68;;;;;;;24.79;35.55;103492.91;5034724;28;20055;-41
2022/01/29 00:13:40;;;;;;;135.65;92.45;;;;;;;24.83;35.28;103484.34;5035058;28;20452;-41
2022/01/29 00:16:08;;;;;;;131.15;92.45;;;;;;;24.86;35.37;103488.84;5034744;28;20032;-41
2022/01/29 00:18:37;;;;;;;135.27;93.93;;;;;;;24.83;34.90;103501.81;5052723;28;20112;-41
2022/01/29 00:21:06;;;;;;;135.52;91.53;;;;;;;24.82;35.01;103481.66;5052134;28;20031;-41
2022/01/29 00:23:34;;;;;;;125.65;92.07;;;;;;;24.83;35.23;103483.44;5052837;28;20017;-41
2022/01/29 00:26:03;;;;;;;138.32;90.25;;;;;;;24.77;35.10;103483.16;5052539;28;20079;-41
2022/01/29 00:28:34;;;;;;;129.85;90.38;;;;;;;24.83;35.28;103486.97;5052685;28;20044;-44
2022/01/29 00:31:03;;;;;;;134.82;91.45;;;;;;;24.81;34.87;103479.88;5052700;28;20360;-41
2022/01/29 00:33:32;;;;;;;133.25;91.63;;;;;;;24.81;35.20;103483.38;5052382;28;20029;-41
2022/01/29 00:36:01;;;;;;;130.38;89.10;;;;;;;24.84;34.81;103480.91;5052438;28;20041;-41
2022/01/29 00:38:31;;;;;;;129.80;88.95;;;;;;;24.83;34.81;103478.19;5052599;28;20452;-41
2022/01/29 00:41:00;;;;;;;129.50;91.97;;;;;;;24.83;35.08;103478.19;5051820;28;20108;-41
2022/01/29 00:43:29;;;;;;;127.80;90.35;;;;;;;24.83;34.69;103475.56;5052387;28;20029;-43
2022/01/29 00:45:58;;;;;;;126.72;88.13;;;;;;;24.81;34.73;103472.88;5052294;28;20037;-41
2022/01/29 00:48:26;;;;;;;134.60;92.07;;;;;;;24.78;35.17;103472.72;5052069;28;20036;-41
2022/01/29 00:50:57;;;;;;;131.73;90.68;;;;;;;24.75;34.83;103456.81;5051965;28;20025;-41
2022/01/29 00:53:25;;;;;;;132.00;91.68;;;;;;;24.80;35.01;103463.19;5052286;28;20029;-41
2022/01/29 00:55:54;;;;;;;135.35;92.43;;;;;;;24.77;34.84;103463.03;5052352;28;20025;-42
2022/01/29 00:58:23;;;;;;;134.68;92.93;;;;;;;24.73;35.04;103459.38;5052163;28;20029;-42
2022/01/29 01:00:51;;;;;;;127.10;90.72;;;;;;;24.72;34.94;103459.31;5053700;28;20468;-41
2022/01/29 01:03:20;;;;;;;136.40;93.88;;;;;;;24.72;35.15;103454.06;5021596;28;20226;-42
2022/01/29 01:05:48;;;;;;;139.70;95.22;;;;;;;24.71;34.84;103461.03;5055462;28;20104;-43
2022/01/29 01:08:17;;;;;;;130.30;91.35;;;;;;;24.65;34.89;103446.66;5055660;28;20052;-41
2022/01/29 01:10:46;;;;;;;137.63;95.10;;;;;;;24.71;35.10;103458.41;5055895;28;20084;-42
2022/01/29 01:13:14;;;;;;;144.23;95.38;;;;;;;24.71;34.83;103463.66;5055602;28;20032;-41
2022/01/29 01:15:43;;;;;;;135.07;95.82;;;;;;;24.71;35.07;103457.50;5055471;28;20472;-43
2022/01/29 01:18:11;;;;;;;142.88;95.20;;;;;;;24.69;35.02;103461.75;5055601;28;20539;-41
2022/01/29 01:20:40;;;;;;;141.55;91.95;;;;;;;24.65;34.86;103450.19;5055113;28;20017;-43
2022/01/29 01:23:08;;;;;;;134.40;94.88;;;;;;;24.70;34.83;103459.22;5037570;28;20024;-43
2022/01/29 01:25:37;;;;;;;137.60;95.38;;;;;;;24.69;35.07;103462.63;5055625;28;20064;-42
2022/01/29 01:28:05;;;;;;;136.40;94.82;;;;;;;24.66;35.02;103459.84;5055194;28;20025;-42
2022/01/29 01:30:36;;;;;;;136.65;95.07;;;;;;;24.67;34.79;103461.66;5037463;28;20032;-42
2022/01/29 01:33:05;;;;;;;133.25;93.63;;;;;;;24.62;34.82;103457.00;5055334;28;20033;-42
2022/01/29 01:35:39;;;;;;;129.52;94.53;;;;;;;24.63;34.72;103454.47;5054622;28;20084;-42
2022/01/29 01:38:15;;;;;;;135.77;94.47;;;;;;;24.64;34.77;103460.59;5037003;28;20021;-41
2022/01/29 01:40:49;;;;;;;140.65;96.22;;;;;;;24.63;34.61;103457.09;5055068;28;20270;-41
2022/01/29 01:43:18;;;;;;;137.43;96.57;;;;;;;24.63;34.84;103457.09;5054767;28;20143;-43
2022/01/29 01:45:47;;;;;;;141.40;96.00;;;;;;;24.65;35.02;103460.69;5055150;28;20029;-43
2022/01/29 01:48:15;;;;;;;132.40;95.15;;;;;;;24.64;34.71;103460.59;5054964;28;20021;-43
2022/01/29 01:50:44;;;;;;;136.05;94.72;;;;;;;24.62;34.82;103459.63;5054772;28;20021;-42
2022/01/29 01:53:12;;;;;;;143.98;95.90;;;;;;;24.65;34.80;103463.31;5055003;28;20511;-41
2022/01/29 01:55:41;;;;;;;137.27;95.07;;;;;;;24.60;34.78;103469.16;5037025;28;20029;-41
2022/01/29 01:58:11;;;;;;;137.02;95.55;;;;;;;24.60;34.46;103475.31;5037071;28;20112;-42
2022/01/29 02:00:40;;;;;;;135.77;94.38;;;;;;;24.63;34.55;103467.59;5037419;28;20025;-43
2022/01/29 02:03:09;;;;;;;139.23;94.53;;;;;;;24.61;34.69;103476.19;5054617;28;20108;-42
2022/01/29 02:05:38;;;;;;;137.70;95.65;;;;;;;24.62;34.76;103481.53;5054744;28;20491;-41
2022/01/29 02:08:07;;;;;;;138.10;96.40;;;;;;;24.60;34.76;103477.94;5054863;28;20041;-42
2022/01/29 02:10:36;;;;;;;140.52;96.20;;;;;;;24.60;34.48;103488.44;5054501;28;20033;-42
2022/01/29 02:13:05;;;;;;;139.13;97.28;;;;;;;24.46;34.55;103450.09;5054014;28;20536;-41
2022/01/29 02:15:34;;;;;;;136.93;96.78;;;;;;;24.58;34.70;103474.31;5054658;28;20040;-42
2022/01/29 02:18:02;;;;;;;140.20;94.85;;;;;;;24.61;34.89;103482.38;5053932;28;20029;-41
2022/01/29 02:20:32;;;;;;;141.80;96.10;;;;;;;24.56;34.80;103475.97;5036342;28;20035;-42
2022/01/29 02:23:00;;;;;;;137.23;93.85;;;;;;;24.58;34.52;103471.69;5036883;28;20024;-42
2022/01/29 02:25:35;;;;;;;135.57;93.72;;;;;;;24.54;34.86;103473.28;5054663;28;20029;-41
2022/01/29 02:28:23;;;;;;;143.63;100.10;;;;;;;24.55;34.62;103472.47;5054607;28;20108;-42
2022/01/29 02:30:57;;;;;;;136.02;98.38;;;;;;;24.54;34.74;103473.28;5053783;28;20029;-41
2022/01/29 02:33:26;;;;;;;140.77;98.87;;;;;;;24.56;34.70;103473.34;5053992;28;20025;-42
2022/01/29 02:35:56;;;;;;;138.27;96.40;;;;;;;24.54;34.64;103468.03;5036098;28;20045;-42
2022/01/29 02:38:26;;;;;;;135.32;95.93;;;;;;;24.55;34.48;103471.53;5053957;28;20029;-40
2022/01/29 02:40:59;;;;;;;141.27;96.97;;;;;;;24.53;34.48;103467.94;5053850;28;20024;-41
2022/01/29 02:43:32;;;;;;;145.52;100.05;;;;;;;24.53;34.93;103458.34;5053615;28;20078;-41
2022/01/29 02:46:07;;;;;;;148.27;99.57;;;;;;;24.52;34.49;103472.31;5054149;28;20048;-41
2022/01/29 02:48:36;;;;;;;143.88;100.72;;;;;;;24.52;34.91;103469.69;5037096;28;20029;-42
2022/01/29 02:51:04;;;;;;;144.00;100.47;;;;;;;24.52;34.46;103466.13;5053590;28;20020;-42
2022/01/29 02:53:33;;;;;;;147.07;103.63;;;;;;;24.50;34.95;103475.66;5053563;28;20055;-41
2022/01/29 02:56:01;;;;;;;136.82;99.05;;;;;;;24.51;34.74;103477.44;5053509;28;20108;-42
2022/01/29 02:58:30;;;;;;;143.98;101.63;;;;;;;24.51;34.92;103469.56;5053464;28;20033;-42
2022/01/29 03:00:59;;;;;;;150.23;104.47;;;;;;;24.50;34.53;103476.56;5053600;28;20029;-41
2022/01/29 03:03:27;;;;;;;151.30;104.75;;;;;;;24.45;34.84;103464.94;5053776;28;20029;-42
2022/01/29 03:05:56;;;;;;;147.10;100.50;;;;;;;24.47;34.88;103478.16;5053657;28;20025;-42
2022/01/29 03:08:24;;;;;;;146.25;100.47;;;;;;;24.50;34.54;103478.28;5053039;28;20052;-42
2022/01/29 03:10:53;;;;;;;155.10;103.15;;;;;;;24.48;34.87;103475.59;5053491;28;20131;-41
2022/01/29 03:13:21;;;;;;;140.00;99.53;;;;;;;24.45;34.84;103469.28;5035391;28;20480;-42
2022/01/29 03:15:50;;;;;;;144.57;99.53;;;;;;;24.48;34.52;103479.94;5053435;28;20084;-42
2022/01/29 03:18:19;;;;;;;143.02;100.20;;;;;;;24.44;34.63;103471.00;5053097;28;20025;-40
2022/01/29 03:20:47;;;;;;;146.65;100.75;;;;;;;24.48;34.41;103479.94;5053063;28;20025;-42
2022/01/29 03:23:16;;;;;;;142.52;100.72;;;;;;;24.45;34.58;103474.53;5052511;28;20033;-42
2022/01/29 03:25:45;;;;;;;146.73;98.50;;;;;;;24.47;34.51;103476.41;5053093;28;20106;-41
2022/01/29 03:28:13;;;;;;;147.00;99.13;;;;;;;24.45;34.47;103475.44;5052621;28;20086;-42
2022/01/29 03:30:42;;;;;;;147.77;102.78;;;;;;;24.43;34.50;103472.72;5052896;28;20198;-42
2022/01/29 03:33:11;;;;;;;143.82;101.00;;;;;;;24.42;34.62;103467.38;5035308;28;20029;-43
2022/01/29 03:35:40;;;;;;;143.68;101.90;;;;;;;24.44;34.74;103471.00;5052989;28;20067;-44
2022/01/29 03:38:09;;;;;;;145.68;99.53;;;;;;;24.43;34.42;103477.06;5052776;28;20033;-42
2022/01/29 03:40:38;;;;;;;149.82;101.70;;;;;;;24.40;34.42;103477.81;5052937;28;20031;-42
2022/01/29 03:43:10;;;;;;;144.45;98.38;;;;;;;24.40;34.86;103480.44;5053117;28;20025;-42
2022/01/29 03:45:39;;;;;;;138.18;101.20;;;;;;;24.35;34.46;103474.06;5052269;28;20048;-42
2022/01/29 03:48:08;;;;;;;149.00;102.70;;;;;;;24.40;34.60;103476.94;5052992;28;20041;-42
2022/01/29 03:50:36;;;;;;;150.27;103.80;;;;;;;24.46;34.50;103474.59;5053320;28;20074;-42
2022/01/29 03:53:05;;;;;;;138.63;101.65;;;;;;;24.42;34.51;103476.19;5052688;28;20021;-42
2022/01/29 03:55:34;;;;;;;149.38;101.95;;;;;;;24.37;34.65;103471.53;5052770;28;20037;-42
2022/01/29 03:58:02;;;;;;;143.38;101.45;;;;;;;24.41;34.38;103476.09;5034232;28;20021;-41
2022/01/29 04:00:31;;;;;;;149.07;97.97;;;;;;;24.39;34.78;103477.75;5034504;28;20036;-41
2022/01/29 04:03:00;;;;;;;143.98;101.72;;;;;;;24.43;34.40;103480.59;5035170;28;20415;-41
2022/01/29 04:05:28;;;;;;;149.10;101.28;;;;;;;24.41;34.47;103478.72;5052689;28;20029;-42
2022/01/29 04:07:57;;;;;;;147.93;102.15;;;;;;;24.35;34.39;103475.78;5052661;28;20203;-42
2022/01/29 04:10:28;;;;;;;144.07;101.72;;;;;;;24.39;34.49;103481.25;5052825;28;20021;-42
2022/01/29 04:12:57;;;;;;;150.63;101.35;;;;;;;24.40;34.67;103482.19;5052565;28;20087;-42
2022/01/29 04:15:26;;;;;;;150.15;100.18;;;;;;;24.40;34.56;103477.81;5052575;28;20104;-42
2022/01/29 04:17:54;;;;;;;144.93;102.15;;;;;;;24.37;34.26;103479.41;5052747;28;20051;-42
2022/01/29 04:20:23;;;;;;;147.98;101.13;;;;;;;24.37;34.79;103488.16;5052552;28;20476;-42
2022/01/29 04:22:51;;;;;;;147.27;102.40;;;;;;;24.36;34.77;103486.34;5034968;28;20032;-42
2022/01/29 04:25:20;;;;;;;142.45;101.15;;;;;;;24.37;34.68;103482.03;5018932;28;20025;-42
2022/01/29 04:27:48;;;;;;;154.77;104.55;;;;;;;24.35;34.39;103486.28;5035295;28;20028;-43
2022/01/29 04:30:44;;;;;;;140.82;100.72;;;;;;;24.34;34.40;103484.47;5035072;28;20087;-41
2022/01/29 04:33:46;;;;;;;144.15;99.68;;;;;;;24.31;34.65;103482.63;5035210;28;20045;-41
2022/01/29 04:35:52;;;;;;;149.30;103.63;;;;;;;24.37;34.45;103496.03;5048905;28;20060;-42
2022/01/29 04:38:24;;;;;;;143.50;102.15;;;;;;;24.31;34.88;103490.47;5038631;28;20025;-41
2022/01/29 04:40:52;;;;;;;141.82;100.22;;;;;;;24.33;34.54;103495.78;5056285;28;20468;-41
2022/01/29 04:43:20;;;;;;;153.45;106.07;;;;;;;24.34;34.76;103489.72;5038191;28;20049;-42
2022/01/29 04:45:49;;;;;;;156.02;105.03;;;;;;;24.30;34.67;103480.81;5055973;28;20032;-42
2022/01/29 04:48:17;;;;;;;146.30;102.28;;;;;;;24.34;34.40;103485.38;5021994;28;20044;-41
2022/01/29 04:50:46;;;;;;;155.18;107.07;;;;;;;24.30;34.83;103486.06;5056316;28;20025;-42
2022/01/29 04:53:14;;;;;;;146.20;103.70;;;;;;;24.26;34.82;103486.72;5055561;28;20107;-41
2022/01/29 04:55:43;;;;;;;157.27;106.93;;;;;;;24.26;34.53;103492.84;5056219;28;20430;-41
2022/01/29 04:58:12;;;;;;;159.82;109.18;;;;;;;24.26;34.52;103490.22;5055455;28;20033;-41
2022/01/29 05:00:40;;;;;;;154.88;105.22;;;;;;;24.30;34.83;103493.94;5055657;28;20082;-42
2022/01/29 05:03:11;;;;;;;157.15;104.00;;;;;;;24.27;34.82;103485.88;5038055;28;20107;-41
2022/01/29 05:05:40;;;;;;;160.80;106.75;;;;;;;24.24;34.68;103481.38;5038018;28;20059;-42
2022/01/29 05:08:11;;;;;;;159.13;108.20;;;;;;;24.25;34.47;103483.16;5055614;28;20098;-41
2022/01/29 05:10:40;;;;;;;152.23;106.20;;;;;;;24.30;34.32;103479.88;5038312;28;20031;-42
2022/01/29 05:13:12;;;;;;;151.52;107.20;;;;;;;24.30;34.76;103475.56;5055161;28;20037;-41
2022/01/29 05:15:48;;;;;;;157.05;107.28;;;;;;;24.25;34.53;103477.03;5055271;28;20037;-41
2022/01/29 05:27:04;;;;;;;157.57;111.03;;;;;;;24.23;34.86;103458.63;5036901;28;20041;-41
2022/01/29 05:29:30;;;;;;;154.38;108.47;;;;;;;24.22;34.75;103458.50;5054824;28;20037;-41
2022/01/29 05:32:02;;;;;;;154.43;107.38;;;;;;;24.25;34.48;103461.28;5055636;28;20422;-42
2022/01/29 05:34:30;;;;;;;153.27;105.78;;;;;;;24.22;34.47;103467.31;5055429;28;20056;-41
2022/01/29 05:36:59;;;;;;;156.70;108.38;;;;;;;24.22;34.78;103463.75;5054742;28;20082;-41
2022/01/29 05:39:28;;;;;;;162.90;107.78;;;;;;;24.19;34.76;103460.97;5055189;28;20049;-42
2022/01/29 05:41:56;;;;;;;153.65;107.55;;;;;;;24.25;34.41;103461.28;5054860;28;20178;-41
2022/01/29 05:44:25;;;;;;;155.15;109.40;;;;;;;24.21;34.86;103455.00;5055033;28;20029;-41
2022/01/29 05:46:54;;;;;;;167.95;111.75;;;;;;;24.21;34.40;103462.88;5054271;28;20021;-42
2022/01/29 05:49:23;;;;;;;156.95;107.65;;;;;;;24.20;34.54;103461.06;5054794;28;20029;-41
2022/01/29 05:51:52;;;;;;;157.43;110.30;;;;;;;24.22;34.57;103453.28;5037462;28;20387;-41
2022/01/29 05:54:21;;;;;;;160.90;111.30;;;;;;;24.20;34.74;103455.81;5054875;28;20047;-41
2022/01/29 05:56:49;;;;;;;158.02;111.13;;;;;;;24.14;34.76;103439.75;5054639;28;20021;-42
2022/01/29 05:59:18;;;;;;;165.48;109.15;;;;;;;24.17;34.48;103450.41;5054643;28;20610;-41
2022/01/29 06:01:47;;;;;;;157.48;110.57;;;;;;;24.18;34.91;103453.91;5054347;28;20438;-42
2022/01/29 06:04:15;;;;;;;163.90;113.25;;;;;;;24.20;34.80;103458.44;5054430;28;20029;-43
2022/01/29 06:06:44;;;;;;;155.23;110.72;;;;;;;24.09;34.47;103430.75;5054548;28;20037;-42
2022/01/29 06:09:13;;;;;;;154.60;108.93;;;;;;;24.16;34.77;103445.09;5036669;28;20499;-42
2022/01/29 06:11:41;;;;;;;158.52;108.72;;;;;;;24.14;34.62;103441.50;5054487;28;20037;-43
2022/01/29 06:14:10;;;;;;;160.35;111.22;;;;;;;24.18;34.38;103441.72;5054357;28;20095;-42
2022/01/29 06:16:38;;;;;;;165.27;110.95;;;;;;;24.19;34.67;103445.22;5054429;28;20020;-42
2022/01/29 06:19:07;;;;;;;165.43;111.57;;;;;;;24.17;34.83;103446.88;5054040;28;20033;-43
2022/01/29 06:21:35;;;;;;;163.95;111.57;;;;;;;24.15;34.42;103454.69;5054423;28;20057;-42
2022/01/29 06:24:04;;;;;;;168.00;115.20;;;;;;;24.14;34.65;103452.88;5036442;28;20024;-41
2022/01/29 06:26:32;;;;;;;162.55;111.57;;;;;;;24.16;34.76;103452.97;5054200;28;20035;-41
2022/01/29 06:29:01;;;;;;;148.77;111.63;;;;;;;24.14;34.77;103454.59;5036404;28;20032;-42
2022/01/29 06:31:30;;;;;;;166.45;110.55;;;;;;;24.11;34.61;103443.13;5054524;28;20057;-42
2022/01/29 06:33:59;;;;;;;161.45;112.65;;;;;;;24.14;34.87;103459.84;5054089;28;20479;-43
2022/01/29 06:36:27;;;;;;;163.30;114.15;;;;;;;24.10;34.51;103451.81;5054208;28;20484;-42
2022/01/29 06:38:56;;;;;;;163.40;113.50;;;;;;;24.14;34.68;103462.47;5053668;28;20107;-41
2022/01/29 06:41:24;;;;;;;164.45;111.82;;;;;;;24.13;34.52;103456.31;5054010;28;20039;-42
2022/01/29 06:43:53;;;;;;;158.77;108.07;;;;;;;24.16;34.46;103458.22;5054048;28;20111;-42
2022/01/29 06:46:21;;;;;;;158.40;110.70;;;;;;;24.10;34.83;103462.31;5052950;28;20399;-42
2022/01/29 06:48:50;;;;;;;162.13;115.18;;;;;;;24.04;34.96;103454.13;5053738;28;20029;-41
2022/01/29 06:51:19;;;;;;;158.25;110.32;;;;;;;24.07;34.71;103459.53;5036315;28;20494;-42
2022/01/29 06:53:48;;;;;;;158.75;110.00;;;;;;;24.10;34.45;103451.81;5053391;28;20029;-42
2022/01/29 06:56:16;;;;;;;165.50;111.70;;;;;;;24.09;34.74;103454.34;5053693;28;20468;-42
2022/01/29 06:58:44;;;;;;;163.65;112.70;;;;;;;24.09;34.83;103450.03;5052866;28;20039;-43
2022/01/29 07:01:12;;;;;;;166.98;117.68;;;;;;;24.09;34.82;103460.50;5053343;28;20495;-42
2022/01/29 07:03:41;;;;;;;165.77;116.40;;;;;;;24.10;34.79;103461.41;5053248;28;20523;-42
2022/01/29 07:06:13;;;;;;;182.88;122.97;;;;;;;24.05;35.01;103453.28;5053601;28;20046;-42
2022/01/29 07:08:41;;;;;;;175.20;119.97;;;;;;;24.08;34.68;103456.09;5053421;28;20056;-41
2022/01/29 07:11:09;;;;;;;173.52;120.50;;;;;;;24.07;35.04;103451.66;5053580;28;20052;-45
2022/01/29 07:13:38;;;;;;;171.63;118.80;;;;;;;24.07;34.91;103456.00;5053207;28;20025;-42
2022/01/29 07:16:06;;;;;;;173.38;118.43;;;;;;;24.06;34.83;103452.47;5053419;28;20021;-42
2022/01/29 07:18:34;;;;;;;157.45;107.32;;;;;;;24.09;34.89;103454.34;5053295;28;20021;-42
2022/01/29 07:21:03;;;;;;;158.85;110.60;;;;;;;24.03;34.60;103464.53;5052880;28;20035;-42
2022/01/29 07:23:31;;;;;;;161.52;107.70;;;;;;;24.05;34.71;103462.91;5053856;28;20021;-42
2022/01/29 07:26:00;;;;;;;148.20;101.65;;;;;;;24.06;34.47;103456.84;5052963;28;20029;-41
2022/01/29 07:28:28;;;;;;;151.05;103.38;;;;;;;24.06;34.68;103459.47;5018978;28;20021;-42
2022/01/29 07:30:57;;;;;;;149.68;102.47;;;;;;;24.08;34.33;103455.16;5053393;28;20095;-42
2022/01/29 07:33:26;;;;;;;144.38;98.55;;;;;;;24.07;34.17;103464.78;5035150;28;20091;-41
2022/01/29 07:35:56;;;;;;;141.57;99.65;;;;;;;24.03;34.69;103473.28;5052752;28;20100;-42
2022/01/29 07:38:28;;;;;;;137.23;95.00;;;;;;;24.03;34.21;103472.41;5035991;28;20068;-41
2022/01/29 07:40:57;;;;;;;134.95;93.70;;;;;;;24.04;34.10;103469.84;5052898;28;20029;-42
2022/01/29 07:43:26;;;;;;;129.93;93.03;;;;;;;23.94;34.61;103468.44;5053662;28;20452;-42
2022/01/29 07:45:55;;;;;;;128.88;88.82;;;;;;;24.01;34.59;103469.69;5053243;28;20029;-42
2022/01/29 07:48:24;;;;;;;131.80;90.65;;;;;;;24.01;34.60;103477.53;5052795;28;20028;-42
2022/01/29 07:50:53;;;;;;;124.88;85.25;;;;;;;23.98;34.35;103477.41;5053076;28;20095;-43
2022/01/29 07:53:21;;;;;;;124.22;86.65;;;;;;;23.99;34.29;103473.97;5052348;28;20025;-42
2022/01/29 07:55:50;;;;;;;117.15;81.80;;;;;;;23.97;34.26;103486.97;5034764;28;20032;-42
2022/01/29 07:58:19;;;;;;;116.00;81.28;;;;;;;23.89;34.55;103472.53;5053192;28;20391;-42
2022/01/29 08:00:49;;;;;;;116.75;80.20;;;;;;;23.93;34.12;103476.22;5052890;28;20025;-43
2022/01/29 08:03:17;;;;;;;116.07;81.38;;;;;;;23.93;34.51;103478.84;5053182;28;20106;-43
2022/01/29 08:05:46;;;;;;;109.70;78.65;;;;;;;23.94;34.26;103488.50;5052182;28;20025;-42
2022/01/29 08:08:15;;;;;;;114.05;77.95;;;;;;;24.00;34.11;103473.13;5052661;28;20035;-40
2022/01/29 08:10:44;;;;;;;106.13;75.30;;;;;;;24.00;34.26;103474.84;5055614;28;20029;-43
2022/01/29 08:13:12;;;;;;;108.93;75.20;;;;;;;23.92;34.16;103461.31;5057290;28;20025;-43
2022/01/29 08:15:41;;;;;;;109.22;74.85;;;;;;;23.95;34.16;103458.84;5056431;28;20394;-41
2022/01/29 08:18:10;;;;;;;105.35;73.38;;;;;;;23.95;34.32;103466.72;5056815;28;20032;-41
2022/01/29 08:20:39;;;;;;;109.03;74.18;;;;;;;23.96;34.51;103471.16;5056594;28;20029;-41
2022/01/29 08:23:08;;;;;;;101.68;71.60;;;;;;;23.96;34.05;103461.59;5039220;28;20487;-42
2022/01/29 08:25:38;;;;;;;102.63;70.85;;;;;;;23.98;34.51;103464.31;5056762;28;20033;-42
2022/01/29 08:28:07;;;;;;;107.40;70.88;;;;;;;23.96;34.29;103466.81;5056148;28;20017;-41
2022/01/29 08:30:36;;;;;;;101.03;68.72;;;;;;;24.00;34.17;103461.75;5056820;28;20108;-41
2022/01/29 08:33:07;;;;;;;98.78;66.65;;;;;;;24.01;34.51;103464.44;5056189;28;20403;-42
2022/01/29 08:35:36;;;;;;;98.30;67.40;;;;;;;24.01;34.56;103468.78;5056061;28;20451;-44
2022/01/29 08:38:05;;;;;;;95.70;66.20;;;;;;;24.01;34.23;103461.81;5056166;28;20037;-41
2022/01/29 08:40:34;;;;;;;90.10;63.28;;;;;;;24.02;34.06;103463.63;5038380;28;20066;-42
2022/01/29 08:43:03;;;;;;;94.65;63.08;;;;;;;24.02;34.11;103457.50;5056153;28;20033;-41
2022/01/29 08:45:32;;;;;;;97.55;62.90;;;;;;;23.98;34.41;103459.06;5038408;28;20066;-42
2022/01/29 08:48:01;;;;;;;89.05;61.38;;;;;;;23.99;34.36;103457.31;5056139;28;20066;-41
2022/01/29 08:50:29;;;;;;;94.35;62.35;;;;;;;23.95;34.20;103458.84;5056108;28;20029;-42
2022/01/29 08:52:58;;;;;;;86.82;61.60;;;;;;;24.04;34.63;103461.97;5056172;28;20029;-41
2022/01/29 08:55:27;;;;;;;89.32;60.58;;;;;;;23.97;34.15;103462.50;5056599;28;20119;-41
2022/01/29 08:57:55;;;;;;;93.20;58.58;;;;;;;23.97;34.52;103473.88;5038706;28;20391;-41
2022/01/29 09:00:24;;;;;;;87.22;57.88;;;;;;;23.96;34.29;103476.38;5055241;28;20120;-41
2022/01/29 09:02:53;;;;;;;86.00;56.80;;;;;;;23.92;34.76;103477.03;5055976;28;20055;-41
2022/01/29 09:05:22;;;;;;;79.45;51.95;;;;;;;23.89;34.27;103469.00;5055850;28;20072;-40
2022/01/29 09:07:50;;;;;;;80.07;51.33;;;;;;;23.96;34.31;103468.53;5055623;28;20113;-41
2022/01/29 09:10:19;;;;;;;75.90;53.10;;;;;;;23.95;34.50;103472.84;5055574;28;20031;-41
2022/01/29 09:12:48;;;;;;;73.63;50.95;;;;;;;24.02;34.17;103467.97;5055563;28;20082;-41
2022/01/29 09:15:16;;;;;;;70.30;50.80;;;;;;;23.97;34.56;103475.59;5055619;28;20029;-41
2022/01/29 09:17:46;;;;;;;77.22;50.40;;;;;;;23.97;34.61;103476.50;5037984;28;20103;-41
2022/01/29 09:20:15;;;;;;;72.88;49.05;;;;;;;24.00;34.26;103469.63;5055007;28;20345;-41
2022/01/29 09:22:43;;;;;;;78.47;51.33;;;;;;;24.00;34.50;103475.75;5054445;28;20086;-41
2022/01/29 09:25:12;;;;;;;72.75;47.53;;;;;;;23.98;34.31;103469.53;5054934;28;20044;-41
2022/01/29 09:27:40;;;;;;;75.93;51.13;;;;;;;23.99;34.79;103484.47;5055236;28;20492;-42
2022/01/29 09:30:10;;;;;;;74.68;49.13;;;;;;;24.00;34.56;103478.38;5021675;28;20100;-41
2022/01/29 09:32:38;;;;;;;75.03;50.22;;;;;;;24.05;34.71;103481.25;5037927;28;20033;-42
2022/01/29 09:35:08;;;;;;;70.90;50.10;;;;;;;24.01;34.57;103479.28;5037612;28;20025;-42
2022/01/29 09:37:37;;;;;;;72.32;47.65;;;;;;;24.06;34.37;103483.06;5054987;28;20073;-42
2022/01/29 09:40:06;;;;;;;73.25;48.03;;;;;;;24.05;34.74;103474.28;5055190;28;20477;-42
2022/01/29 09:42:35;;;;;;;77.57;47.90;;;;;;;24.05;34.74;103473.38;5054369;28;20064;-42
2022/01/29 09:45:05;;;;;;;73.60;49.75;;;;;;;24.08;34.41;103477.06;5055287;28;20028;-42
2022/01/29 09:47:33;;;;;;;74.63;47.55;;;;;;;24.11;34.59;103464.13;5054308;28;20104;-41
2022/01/29 09:50:02;;;;;;;73.03;46.90;;;;;;;24.03;34.85;103465.41;5054688;28;20388;-41
2022/01/29 09:52:31;;;;;;;73.80;48.42;;;;;;;24.07;34.52;103466.50;5054929;28;20035;-41
2022/01/29 09:55:00;;;;;;;69.90;47.33;;;;;;;24.10;34.58;103469.25;5037011;28;20083;-41
2022/01/29 09:57:29;;;;;;;71.38;47.25;;;;;;;24.09;34.85;103467.47;5037192;28;20096;-40
2022/01/29 09:59:58;;;;;;;67.70;45.70;;;;;;;24.09;34.51;103470.06;5054662;28;20033;-44
2022/01/29 10:02:27;;;;;;;68.88;45.63;;;;;;;24.18;34.45;103477.53;5054623;28;20036;-43
2022/01/29 10:04:57;;;;;;;69.90;45.65;;;;;;;24.06;34.80;103465.59;5054442;28;20108;-41
2022/01/29 10:07:29;;;;;;;64.00;41.92;;;;;;;24.10;34.54;103478.03;5055029;28;20029;-42
2022/01/29 10:10:03;;;;;;;60.75;42.10;;;;;;;24.06;34.96;103477.81;5054461;28;20071;-43
2022/01/29 10:12:33;;;;;;;64.30;42.13;;;;;;;24.06;34.47;103491.81;5037295;28;20117;-41
2022/01/29 10:15:04;;;;;;;59.55;41.83;;;;;;;24.11;34.35;103487.72;5054818;28;20040;-41
2022/01/29 10:17:54;;;;;;;67.85;42.85;;;;;;;24.14;34.67;103480.84;5054377;28;20086;-41
2022/01/29 10:20:25;;;;;;;67.53;42.17;;;;;;;24.11;34.50;103482.47;5054453;28;20025;-40
2022/01/29 10:23:00;;;;;;;66.10;43.20;;;;;;;24.09;34.83;103476.25;5054370;28;20029;-41
2022/01/29 10:25:29;;;;;;;;;;;;;;;24.24;34.58;103484.00;5037318;28;20115;-41
2022/01/29 10:28:17;;;;;;;63.50;42.53;;;;;;;24.20;34.38;103491.63;5054246;28;19919;-40
2022/01/29 10:30:49;;;;;;;81.70;44.95;;;;;;;24.21;34.44;103494.34;5036706;28;20016;-41
2022/01/29 10:33:22;;;;;;;70.30;44.47;;;;;;;24.22;34.12;103505.72;5053770;28;20464;-40
2022/01/29 10:35:52;;;;;;;66.43;43.78;;;;;;;24.17;34.50;103500.25;5053948;28;20049;-41
2022/01/29 10:38:25;;;;;;;65.72;43.55;;;;;;;24.17;34.33;103502.88;5054400;28;20104;-41
2022/01/29 10:41:31;;;;;;;67.50;44.25;;;;;;;24.21;34.65;103504.84;5053610;28;20059;-41
2022/01/29 10:44:00;;;;;;;67.63;45.45;;;;;;;24.20;34.21;103517.84;5052107;28;20428;-41
2022/01/29 10:46:31;;;;;;;64.45;42.95;;;;;;;24.25;34.14;103514.66;5054213;28;20036;-41
2022/01/29 10:49:00;;;;;;;66.05;43.88;;;;;;;24.24;34.44;103511.94;5054023;28;20025;-41
2022/01/29 10:51:29;;;;;;;69.82;45.42;;;;;;;24.20;34.12;103513.53;5053947;28;20392;-41
2022/01/29 10:54:17;;;;;;;69.55;45.58;;;;;;;24.22;34.48;103522.38;5053345;28;20033;-41
2022/01/29 10:57:14;;;;;;;68.05;44.75;;;;;;;24.20;34.14;103520.47;5053312;28;20044;-41
2022/01/29 10:59:54;;;;;;;72.13;46.95;;;;;;;24.20;34.56;103525.72;5053522;28;20029;-42
2022/01/29 11:02:25;;;;;;;68.78;46.60;;;;;;;24.15;34.20;103521.97;5053608;28;20035;-42
2022/01/29 11:04:54;;;;;;;68.57;45.25;;;;;;;24.20;34.43;103526.63;5053577;28;20036;-42
2022/01/29 11:07:28;;;;;;;72.38;46.10;;;;;;;24.19;34.51;103531.78;5053036;28;20490;-42
2022/01/29 11:09:56;;;;;;;68.90;46.20;;;;;;;24.14;34.40;103530.66;5053101;28;20033;-42
2022/01/29 11:12:25;;;;;;;64.63;44.50;;;;;;;24.17;34.63;103533.41;5053262;28;20491;-42
2022/01/29 11:14:56;;;;;;;64.20;42.97;;;;;;;24.17;34.50;103531.72;5053395;28;20036;-43
2022/01/29 11:17:24;;;;;;;68.85;45.25;;;;;;;24.17;34.40;103531.72;5019126;28;20035;-40
2022/01/29 11:19:53;;;;;;;67.38;44.63;;;;;;;24.18;34.16;103523.03;5018713;28;20028;-43
2022/01/29 11:22:25;;;;;;;68.32;45.70;;;;;;;24.15;34.66;103529.84;5036184;28;20492;-41